sensor_id;sensor_type;location;lat;lon;timestamp;temperature;humidity
12815;DHT22;6472;52.328;13.070;2023-03-05T00:01:31;3.00;99.90
12815;DHT22;6472;52.328;13.070;2023-03-05T00:04:03;3.10;99.90
12815;DHT22;6472;52.328;13.070;2023-03-05T00:06:32;3.20;99.90
12815;DHT22;6472;52.328;13.070;2023-03-05T00:09:00;3.00;99.90
12815;DHT22;6472;52.328;13.070;2023-03-05T00:11:29;3.00;99.90
12815;DHT22;6472;52.328;13.070;2023-03-05T00:14:00;3.10;99.90
12815;DHT22;6472;52.328;13.070;2023-03-05T00:16:30;3.00;99.90
12815;DHT22;6472;52.328;13.070;2023-03-05T00:19:00;2.90;99.90
12815;DHT22;6472;52.328;13.070;2023-03-05T00:21:30;2.80;99.90
12815;DHT22;6472;52.328;13.070;2023-03-05T00:24:00;3.00;99.90
12815;DHT22;6472;52.328;13.070;2023-03-05T00:26:29;2.90;99.90
12815;DHT22;6472;52.328;13.070;2023-03-05T00:29:00;2.80;99.90
12815;DHT22;6472;52.328;13.070;2023-03-05T00:31:29;2.80;99.90
12815;DHT22;6472;52.328;13.070;2023-03-05T00:34:01;2.70;99.90
12815;DHT22;6472;52.328;13.070;2023-03-05T00:36:30;2.70;99.90
12815;DHT22;6472;52.328;13.070;2023-03-05T00:38:59;2.70;99.90
12815;DHT22;6472;52.328;13.070;2023-03-05T00:41:27;2.70;99.90
12815;DHT22;6472;52.328;13.070;2023-03-05T00:43:55;2.70;99.90
12815;DHT22;6472;52.328;13.070;2023-03-05T00:46:23;2.60;99.90
12815;DHT22;6472;52.328;13.070;2023-03-05T00:48:53;2.50;99.90
12815;DHT22;6472;52.328;13.070;2023-03-05T00:51:23;2.60;99.90
12815;DHT22;6472;52.328;13.070;2023-03-05T00:53:52;2.70;99.90
12815;DHT22;6472;52.328;13.070;2023-03-05T00:56:21;2.60;99.90
12815;DHT22;6472;52.328;13.070;2023-03-05T00:58:49;2.60;99.90
12815;DHT22;6472;52.328;13.070;2023-03-05T01:01:23;2.60;99.90
12815;DHT22;6472;52.328;13.070;2023-03-05T01:03:51;2.60;99.90
12815;DHT22;6472;52.328;13.070;2023-03-05T01:06:23;2.60;99.90
12815;DHT22;6472;52.328;13.070;2023-03-05T01:08:52;2.60;99.90
12815;DHT22;6472;52.328;13.070;2023-03-05T01:11:25;2.60;99.90
12815;DHT22;6472;52.328;13.070;2023-03-05T01:14:02;2.60;99.90
12815;DHT22;6472;52.328;13.070;2023-03-05T01:16:30;2.50;99.90
12815;DHT22;6472;52.328;13.070;2023-03-05T01:18:59;2.50;99.90
12815;DHT22;6472;52.328;13.070;2023-03-05T01:21:28;2.50;99.90
12815;DHT22;6472;52.328;13.070;2023-03-05T01:23:56;2.40;99.90
12815;DHT22;6472;52.328;13.070;2023-03-05T01:26:31;2.40;99.90
12815;DHT22;6472;52.328;13.070;2023-03-05T01:29:08;2.20;99.90
12815;DHT22;6472;52.328;13.070;2023-03-05T01:31:36;2.20;99.90
12815;DHT22;6472;52.328;13.070;2023-03-05T01:34:05;2.10;99.90
12815;DHT22;6472;52.328;13.070;2023-03-05T01:36:34;2.10;99.90
12815;DHT22;6472;52.328;13.070;2023-03-05T01:39:03;2.00;99.90
12815;DHT22;6472;52.328;13.070;2023-03-05T01:41:31;2.00;99.90
12815;DHT22;6472;52.328;13.070;2023-03-05T01:44:00;2.00;99.90
12815;DHT22;6472;52.328;13.070;2023-03-05T01:46:30;1.90;99.90
12815;DHT22;6472;52.328;13.070;2023-03-05T01:49:16;1.80;99.90
12815;DHT22;6472;52.328;13.070;2023-03-05T01:52:00;1.70;99.90
12815;DHT22;6472;52.328;13.070;2023-03-05T01:54:32;1.70;99.90
12815;DHT22;6472;52.328;13.070;2023-03-05T01:57:08;1.70;99.90
12815;DHT22;6472;52.328;13.070;2023-03-05T01:59:42;1.70;99.90
12815;DHT22;6472;52.328;13.070;2023-03-05T02:02:12;1.70;99.90
12815;DHT22;6472;52.328;13.070;2023-03-05T02:04:44;1.60;99.90
12815;DHT22;6472;52.328;13.070;2023-03-05T02:07:15;1.60;99.90
12815;DHT22;6472;52.328;13.070;2023-03-05T02:09:43;1.70;99.90
12815;DHT22;6472;52.328;13.070;2023-03-05T02:12:12;1.70;99.90
12815;DHT22;6472;52.328;13.070;2023-03-05T02:14:43;1.70;99.90
12815;DHT22;6472;52.328;13.070;2023-03-05T02:17:12;1.60;99.90
12815;DHT22;6472;52.328;13.070;2023-03-05T02:19:49;1.60;99.90
12815;DHT22;6472;52.328;13.070;2023-03-05T02:22:20;1.50;99.90
12815;DHT22;6472;52.328;13.070;2023-03-05T02:24:49;1.60;99.90
12815;DHT22;6472;52.328;13.070;2023-03-05T02:27:20;1.70;99.90
12815;DHT22;6472;52.328;13.070;2023-03-05T02:29:49;1.70;99.90
12815;DHT22;6472;52.328;13.070;2023-03-05T02:32:18;1.70;99.90
12815;DHT22;6472;52.328;13.070;2023-03-05T02:34:46;1.70;99.90
12815;DHT22;6472;52.328;13.070;2023-03-05T02:37:14;1.80;99.90
12815;DHT22;6472;52.328;13.070;2023-03-05T02:39:44;1.70;99.90
12815;DHT22;6472;52.328;13.070;2023-03-05T02:42:12;1.80;99.90
12815;DHT22;6472;52.328;13.070;2023-03-05T02:44:40;1.90;99.90
12815;DHT22;6472;52.328;13.070;2023-03-05T02:47:08;1.90;99.90
12815;DHT22;6472;52.328;13.070;2023-03-05T02:49:36;1.80;99.90
12815;DHT22;6472;52.328;13.070;2023-03-05T02:52:05;1.80;99.90
12815;DHT22;6472;52.328;13.070;2023-03-05T02:54:33;1.80;99.90
12815;DHT22;6472;52.328;13.070;2023-03-05T02:57:03;1.90;99.90
12815;DHT22;6472;52.328;13.070;2023-03-05T02:59:31;1.80;99.90
12815;DHT22;6472;52.328;13.070;2023-03-05T03:01:59;1.80;99.90
12815;DHT22;6472;52.328;13.070;2023-03-05T03:04:27;1.80;99.90
12815;DHT22;6472;52.328;13.070;2023-03-05T03:06:55;1.70;99.90
12815;DHT22;6472;52.328;13.070;2023-03-05T03:09:23;1.80;99.90
12815;DHT22;6472;52.328;13.070;2023-03-05T03:11:52;1.80;99.90
12815;DHT22;6472;52.328;13.070;2023-03-05T03:14:22;1.80;99.90
12815;DHT22;6472;52.328;13.070;2023-03-05T03:16:50;1.90;99.90
12815;DHT22;6472;52.328;13.070;2023-03-05T03:19:18;1.80;99.90
12815;DHT22;6472;52.328;13.070;2023-03-05T03:21:46;1.70;99.90
12815;DHT22;6472;52.328;13.070;2023-03-05T03:24:15;1.70;99.90
12815;DHT22;6472;52.328;13.070;2023-03-05T03:26:43;1.60;99.90
12815;DHT22;6472;52.328;13.070;2023-03-05T03:29:12;1.60;99.90
12815;DHT22;6472;52.328;13.070;2023-03-05T03:31:41;1.40;99.90
12815;DHT22;6472;52.328;13.070;2023-03-05T03:34:11;1.30;99.90
12815;DHT22;6472;52.328;13.070;2023-03-05T03:36:40;1.30;99.90
12815;DHT22;6472;52.328;13.070;2023-03-05T03:39:09;1.30;99.90
12815;DHT22;6472;52.328;13.070;2023-03-05T03:41:40;1.10;99.90
12815;DHT22;6472;52.328;13.070;2023-03-05T03:44:09;1.20;99.90
12815;DHT22;6472;52.328;13.070;2023-03-05T03:46:37;1.10;99.90
12815;DHT22;6472;52.328;13.070;2023-03-05T03:49:11;1.00;99.90
12815;DHT22;6472;52.328;13.070;2023-03-05T03:51:41;1.00;99.90
12815;DHT22;6472;52.328;13.070;2023-03-05T03:54:09;1.00;99.90
12815;DHT22;6472;52.328;13.070;2023-03-05T03:56:37;0.90;99.90
12815;DHT22;6472;52.328;13.070;2023-03-05T03:59:05;0.80;99.90
12815;DHT22;6472;52.328;13.070;2023-03-05T04:01:34;0.90;99.90
12815;DHT22;6472;52.328;13.070;2023-03-05T04:04:02;0.90;99.90
12815;DHT22;6472;52.328;13.070;2023-03-05T04:06:32;1.10;99.90
12815;DHT22;6472;52.328;13.070;2023-03-05T04:09:00;1.10;99.90
12815;DHT22;6472;52.328;13.070;2023-03-05T04:11:28;1.10;99.90
12815;DHT22;6472;52.328;13.070;2023-03-05T04:13:56;1.20;99.90
12815;DHT22;6472;52.328;13.070;2023-03-05T04:16:24;1.10;99.90
12815;DHT22;6472;52.328;13.070;2023-03-05T04:18:52;1.20;99.90
12815;DHT22;6472;52.328;13.070;2023-03-05T04:21:20;1.10;99.90
12815;DHT22;6472;52.328;13.070;2023-03-05T04:23:50;1.20;99.90
12815;DHT22;6472;52.328;13.070;2023-03-05T04:26:18;1.20;99.90
12815;DHT22;6472;52.328;13.070;2023-03-05T04:28:46;1.10;99.90
12815;DHT22;6472;52.328;13.070;2023-03-05T04:31:15;1.20;99.90
12815;DHT22;6472;52.328;13.070;2023-03-05T04:33:43;1.30;99.90
12815;DHT22;6472;52.328;13.070;2023-03-05T04:36:11;1.30;99.90
12815;DHT22;6472;52.328;13.070;2023-03-05T04:38:39;1.30;99.90
12815;DHT22;6472;52.328;13.070;2023-03-05T04:41:08;1.40;99.90
12815;DHT22;6472;52.328;13.070;2023-03-05T04:43:36;1.40;99.90
12815;DHT22;6472;52.328;13.070;2023-03-05T04:46:05;1.50;99.90
12815;DHT22;6472;52.328;13.070;2023-03-05T04:48:33;1.50;99.90
12815;DHT22;6472;52.328;13.070;2023-03-05T04:51:01;1.60;99.90
12815;DHT22;6472;52.328;13.070;2023-03-05T04:53:29;1.50;99.90
12815;DHT22;6472;52.328;13.070;2023-03-05T04:55:57;1.50;99.90
12815;DHT22;6472;52.328;13.070;2023-03-05T04:58:28;1.50;99.90
12815;DHT22;6472;52.328;13.070;2023-03-05T05:01:00;1.50;99.90
12815;DHT22;6472;52.328;13.070;2023-03-05T05:03:28;1.50;99.90
12815;DHT22;6472;52.328;13.070;2023-03-05T05:05:57;1.50;99.90
12815;DHT22;6472;52.328;13.070;2023-03-05T05:08:27;1.50;99.90
12815;DHT22;6472;52.328;13.070;2023-03-05T05:10:57;1.50;99.90
12815;DHT22;6472;52.328;13.070;2023-03-05T05:13:26;1.50;99.90
12815;DHT22;6472;52.328;13.070;2023-03-05T05:15:56;1.50;99.90
12815;DHT22;6472;52.328;13.070;2023-03-05T05:18:24;1.30;99.90
12815;DHT22;6472;52.328;13.070;2023-03-05T05:20:52;1.40;99.90
12815;DHT22;6472;52.328;13.070;2023-03-05T05:23:21;1.50;99.90
12815;DHT22;6472;52.328;13.070;2023-03-05T05:25:56;1.50;99.90
12815;DHT22;6472;52.328;13.070;2023-03-05T05:28:24;1.50;99.90
12815;DHT22;6472;52.328;13.070;2023-03-05T05:30:54;1.50;99.90
12815;DHT22;6472;52.328;13.070;2023-03-05T05:33:23;1.60;99.90
12815;DHT22;6472;52.328;13.070;2023-03-05T05:35:51;1.60;99.90
12815;DHT22;6472;52.328;13.070;2023-03-05T05:38:19;1.60;99.90
12815;DHT22;6472;52.328;13.070;2023-03-05T05:40:47;1.60;99.90
12815;DHT22;6472;52.328;13.070;2023-03-05T05:43:15;1.60;99.90
12815;DHT22;6472;52.328;13.070;2023-03-05T05:45:43;1.60;99.90
12815;DHT22;6472;52.328;13.070;2023-03-05T05:48:13;1.60;99.90
12815;DHT22;6472;52.328;13.070;2023-03-05T05:50:41;1.60;99.90
12815;DHT22;6472;52.328;13.070;2023-03-05T05:53:09;1.60;99.90
12815;DHT22;6472;52.328;13.070;2023-03-05T05:55:39;1.50;99.90
12815;DHT22;6472;52.328;13.070;2023-03-05T05:58:07;1.50;99.90
12815;DHT22;6472;52.328;13.070;2023-03-05T06:00:35;1.60;99.90
12815;DHT22;6472;52.328;13.070;2023-03-05T06:03:03;1.60;99.90
12815;DHT22;6472;52.328;13.070;2023-03-05T06:05:33;1.60;99.90
12815;DHT22;6472;52.328;13.070;2023-03-05T06:08:01;1.70;99.90
12815;DHT22;6472;52.328;13.070;2023-03-05T06:10:29;1.80;99.90
12815;DHT22;6472;52.328;13.070;2023-03-05T06:12:57;1.80;99.90
12815;DHT22;6472;52.328;13.070;2023-03-05T06:15:25;1.80;99.90
12815;DHT22;6472;52.328;13.070;2023-03-05T06:17:53;1.80;99.90
12815;DHT22;6472;52.328;13.070;2023-03-05T06:20:21;1.80;99.90
12815;DHT22;6472;52.328;13.070;2023-03-05T06:22:51;1.80;99.90
12815;DHT22;6472;52.328;13.070;2023-03-05T06:25:19;1.80;99.90
12815;DHT22;6472;52.328;13.070;2023-03-05T06:27:47;1.90;99.90
12815;DHT22;6472;52.328;13.070;2023-03-05T06:30:18;2.00;99.90
12815;DHT22;6472;52.328;13.070;2023-03-05T06:32:46;2.00;99.90
12815;DHT22;6472;52.328;13.070;2023-03-05T06:35:14;2.00;99.90
12815;DHT22;6472;52.328;13.070;2023-03-05T06:37:42;2.10;99.90
12815;DHT22;6472;52.328;13.070;2023-03-05T06:40:13;2.20;99.90
12815;DHT22;6472;52.328;13.070;2023-03-05T06:42:41;2.10;99.90
12815;DHT22;6472;52.328;13.070;2023-03-05T06:45:10;2.20;99.90
12815;DHT22;6472;52.328;13.070;2023-03-05T06:47:38;2.20;99.90
12815;DHT22;6472;52.328;13.070;2023-03-05T06:50:07;2.20;99.90
12815;DHT22;6472;52.328;13.070;2023-03-05T06:52:35;2.30;99.90
12815;DHT22;6472;52.328;13.070;2023-03-05T06:55:06;2.20;99.90
12815;DHT22;6472;52.328;13.070;2023-03-05T06:57:36;2.20;99.90
12815;DHT22;6472;52.328;13.070;2023-03-05T07:00:06;2.20;99.90
12815;DHT22;6472;52.328;13.070;2023-03-05T07:02:36;2.20;99.90
12815;DHT22;6472;52.328;13.070;2023-03-05T07:05:05;2.30;99.90
12815;DHT22;6472;52.328;13.070;2023-03-05T07:07:33;2.30;99.90
12815;DHT22;6472;52.328;13.070;2023-03-05T07:10:02;2.30;99.90
12815;DHT22;6472;52.328;13.070;2023-03-05T07:12:33;2.30;99.90
12815;DHT22;6472;52.328;13.070;2023-03-05T07:15:03;2.50;99.90
12815;DHT22;6472;52.328;13.070;2023-03-05T07:17:31;2.50;99.90
12815;DHT22;6472;52.328;13.070;2023-03-05T07:19:59;2.60;99.90
12815;DHT22;6472;52.328;13.070;2023-03-05T07:22:27;2.60;99.90
12815;DHT22;6472;52.328;13.070;2023-03-05T07:24:55;2.70;99.90
12815;DHT22;6472;52.328;13.070;2023-03-05T07:27:23;2.80;99.90
12815;DHT22;6472;52.328;13.070;2023-03-05T07:29:51;2.90;99.90
12815;DHT22;6472;52.328;13.070;2023-03-05T07:32:21;2.90;99.90
12815;DHT22;6472;52.328;13.070;2023-03-05T07:34:49;2.90;99.90
12815;DHT22;6472;52.328;13.070;2023-03-05T07:37:17;2.90;99.90
12815;DHT22;6472;52.328;13.070;2023-03-05T07:39:45;3.00;99.90
12815;DHT22;6472;52.328;13.070;2023-03-05T07:42:13;3.20;99.90
12815;DHT22;6472;52.328;13.070;2023-03-05T07:44:41;3.30;99.90
12815;DHT22;6472;52.328;13.070;2023-03-05T07:47:09;3.50;99.90
12815;DHT22;6472;52.328;13.070;2023-03-05T07:49:39;3.40;99.90
12815;DHT22;6472;52.328;13.070;2023-03-05T07:52:08;3.50;99.90
12815;DHT22;6472;52.328;13.070;2023-03-05T07:54:38;3.40;99.90
12815;DHT22;6472;52.328;13.070;2023-03-05T07:57:07;3.50;99.90
12815;DHT22;6472;52.328;13.070;2023-03-05T07:59:35;3.70;99.90
12815;DHT22;6472;52.328;13.070;2023-03-05T08:02:05;3.80;99.90
12815;DHT22;6472;52.328;13.070;2023-03-05T08:04:33;3.90;99.90
12815;DHT22;6472;52.328;13.070;2023-03-05T08:07:03;4.00;99.90
12815;DHT22;6472;52.328;13.070;2023-03-05T08:09:31;4.00;99.90
12815;DHT22;6472;52.328;13.070;2023-03-05T08:12:00;4.10;99.90
12815;DHT22;6472;52.328;13.070;2023-03-05T08:14:28;4.10;99.90
12815;DHT22;6472;52.328;13.070;2023-03-05T08:16:59;4.00;99.90
12815;DHT22;6472;52.328;13.070;2023-03-05T08:19:27;4.00;99.90
12815;DHT22;6472;52.328;13.070;2023-03-05T08:21:55;4.10;99.90
12815;DHT22;6472;52.328;13.070;2023-03-05T08:24:27;4.20;99.90
12815;DHT22;6472;52.328;13.070;2023-03-05T08:26:57;4.40;99.90
12815;DHT22;6472;52.328;13.070;2023-03-05T08:29:25;4.50;99.90
12815;DHT22;6472;52.328;13.070;2023-03-05T08:31:54;4.90;99.90
12815;DHT22;6472;52.328;13.070;2023-03-05T08:34:22;4.90;99.90
12815;DHT22;6472;52.328;13.070;2023-03-05T08:36:50;5.30;99.90
12815;DHT22;6472;52.328;13.070;2023-03-05T08:39:20;5.60;99.90
12815;DHT22;6472;52.328;13.070;2023-03-05T08:41:51;5.30;99.90
12815;DHT22;6472;52.328;13.070;2023-03-05T08:44:19;5.60;99.90
12815;DHT22;6472;52.328;13.070;2023-03-05T08:46:47;6.00;99.90
12815;DHT22;6472;52.328;13.070;2023-03-05T08:49:19;5.60;99.90
12815;DHT22;6472;52.328;13.070;2023-03-05T08:51:52;5.70;99.90
12815;DHT22;6472;52.328;13.070;2023-03-05T08:54:20;5.90;99.90
12815;DHT22;6472;52.328;13.070;2023-03-05T08:56:48;5.90;99.90
12815;DHT22;6472;52.328;13.070;2023-03-05T08:59:18;6.00;99.90
12815;DHT22;6472;52.328;13.070;2023-03-05T09:01:46;6.10;99.90
12815;DHT22;6472;52.328;13.070;2023-03-05T09:04:14;6.10;99.90
12815;DHT22;6472;52.328;13.070;2023-03-05T09:06:43;6.20;99.90
12815;DHT22;6472;52.328;13.070;2023-03-05T09:09:11;6.20;99.90
12815;DHT22;6472;52.328;13.070;2023-03-05T09:11:39;6.10;99.90
12815;DHT22;6472;52.328;13.070;2023-03-05T09:14:08;6.00;99.90
12815;DHT22;6472;52.328;13.070;2023-03-05T09:16:38;5.80;99.50
12815;DHT22;6472;52.328;13.070;2023-03-05T09:19:07;5.70;99.90
12815;DHT22;6472;52.328;13.070;2023-03-05T09:21:36;5.60;99.90
12815;DHT22;6472;52.328;13.070;2023-03-05T09:24:04;5.70;99.90
12815;DHT22;6472;52.328;13.070;2023-03-05T09:26:32;5.60;99.90
12815;DHT22;6472;52.328;13.070;2023-03-05T09:29:00;5.50;99.90
12815;DHT22;6472;52.328;13.070;2023-03-05T09:31:29;5.80;99.90
12815;DHT22;6472;52.328;13.070;2023-03-05T09:33:58;6.20;99.90
12815;DHT22;6472;52.328;13.070;2023-03-05T09:36:29;6.80;99.90
12815;DHT22;6472;52.328;13.070;2023-03-05T09:38:57;7.10;98.50
12815;DHT22;6472;52.328;13.070;2023-03-05T09:41:31;6.90;97.10
12815;DHT22;6472;52.328;13.070;2023-03-05T09:44:14;6.80;98.60
12815;DHT22;6472;52.328;13.070;2023-03-05T09:46:50;6.70;99.30
12815;DHT22;6472;52.328;13.070;2023-03-05T09:49:30;6.70;98.30
12815;DHT22;6472;52.328;13.070;2023-03-05T09:52:04;6.30;99.20
12815;DHT22;6472;52.328;13.070;2023-03-05T09:54:37;5.80;99.30
12815;DHT22;6472;52.328;13.070;2023-03-05T09:57:12;5.70;99.90
12815;DHT22;6472;52.328;13.070;2023-03-05T09:59:46;5.60;99.90
12815;DHT22;6472;52.328;13.070;2023-03-05T10:02:18;6.10;99.90
12815;DHT22;6472;52.328;13.070;2023-03-05T10:04:52;6.30;99.30
12815;DHT22;6472;52.328;13.070;2023-03-05T10:07:26;6.30;99.20
12815;DHT22;6472;52.328;13.070;2023-03-05T10:09:58;5.90;99.40
12815;DHT22;6472;52.328;13.070;2023-03-05T10:12:37;6.00;99.90
12815;DHT22;6472;52.328;13.070;2023-03-05T10:15:11;6.10;99.90
12815;DHT22;6472;52.328;13.070;2023-03-05T10:17:57;6.00;99.90
12815;DHT22;6472;52.328;13.070;2023-03-05T10:20:53;6.40;98.80
12815;DHT22;6472;52.328;13.070;2023-03-05T10:23:26;6.60;98.60
12815;DHT22;6472;52.328;13.070;2023-03-05T10:26:07;6.70;97.40
12815;DHT22;6472;52.328;13.070;2023-03-05T10:28:43;6.70;96.70
12815;DHT22;6472;52.328;13.070;2023-03-05T10:31:34;6.70;96.80
12815;DHT22;6472;52.328;13.070;2023-03-05T10:40:19;6.10;96.10
12815;DHT22;6472;52.328;13.070;2023-03-05T10:42:55;5.70;96.70
12815;DHT22;6472;52.328;13.070;2023-03-05T10:45:28;5.80;96.10
12815;DHT22;6472;52.328;13.070;2023-03-05T10:48:03;5.70;96.60
12815;DHT22;6472;52.328;13.070;2023-03-05T10:50:35;5.80;96.30
12815;DHT22;6472;52.328;13.070;2023-03-05T10:53:14;6.00;96.30
12815;DHT22;6472;52.328;13.070;2023-03-05T10:55:44;6.20;96.80
12815;DHT22;6472;52.328;13.070;2023-03-05T10:58:13;5.90;95.90
12815;DHT22;6472;52.328;13.070;2023-03-05T11:00:57;5.90;95.50
12815;DHT22;6472;52.328;13.070;2023-03-05T11:03:25;6.00;96.70
12815;DHT22;6472;52.328;13.070;2023-03-05T11:05:58;6.20;95.20
12815;DHT22;6472;52.328;13.070;2023-03-05T11:08:33;6.50;95.50
12815;DHT22;6472;52.328;13.070;2023-03-05T11:11:05;6.80;94.40
12815;DHT22;6472;52.328;13.070;2023-03-05T11:13:40;7.20;93.40
12815;DHT22;6472;52.328;13.070;2023-03-05T11:16:16;7.30;93.50
12815;DHT22;6472;52.328;13.070;2023-03-05T11:18:47;7.20;93.00
12815;DHT22;6472;52.328;13.070;2023-03-05T11:21:20;7.10;92.60
12815;DHT22;6472;52.328;13.070;2023-03-05T11:24:10;7.20;91.90
12815;DHT22;6472;52.328;13.070;2023-03-05T11:26:47;7.10;92.80
12815;DHT22;6472;52.328;13.070;2023-03-05T11:29:19;7.30;93.00
12815;DHT22;6472;52.328;13.070;2023-03-05T11:31:47;7.40;92.40
12815;DHT22;6472;52.328;13.070;2023-03-05T11:34:28;7.20;92.10
12815;DHT22;6472;52.328;13.070;2023-03-05T11:37:00;6.90;92.50
12815;DHT22;6472;52.328;13.070;2023-03-05T11:39:32;6.90;92.10
12815;DHT22;6472;52.328;13.070;2023-03-05T11:42:06;6.80;92.30
12815;DHT22;6472;52.328;13.070;2023-03-05T11:44:44;6.50;91.90
12815;DHT22;6472;52.328;13.070;2023-03-05T11:47:22;6.60;93.30
12815;DHT22;6472;52.328;13.070;2023-03-05T11:49:55;6.40;92.60
12815;DHT22;6472;52.328;13.070;2023-03-05T11:52:30;6.20;92.90
12815;DHT22;6472;52.328;13.070;2023-03-05T11:55:03;6.10;92.50
12815;DHT22;6472;52.328;13.070;2023-03-05T11:57:42;6.00;93.30
12815;DHT22;6472;52.328;13.070;2023-03-05T12:00:14;6.20;94.10
12815;DHT22;6472;52.328;13.070;2023-03-05T12:02:43;6.30;92.70
12815;DHT22;6472;52.328;13.070;2023-03-05T12:05:14;6.40;92.80
12815;DHT22;6472;52.328;13.070;2023-03-05T12:07:46;6.50;93.20
12815;DHT22;6472;52.328;13.070;2023-03-05T12:10:19;6.40;93.20
12815;DHT22;6472;52.328;13.070;2023-03-05T12:12:54;6.30;92.70
12815;DHT22;6472;52.328;13.070;2023-03-05T12:15:30;6.20;93.30
12815;DHT22;6472;52.328;13.070;2023-03-05T12:18:15;6.20;93.50
12815;DHT22;6472;52.328;13.070;2023-03-05T12:20:48;6.10;93.80
12815;DHT22;6472;52.328;13.070;2023-03-05T12:23:21;6.00;94.00
12815;DHT22;6472;52.328;13.070;2023-03-05T12:25:55;5.90;94.00
12815;DHT22;6472;52.328;13.070;2023-03-05T12:28:56;6.10;95.00
12815;DHT22;6472;52.328;13.070;2023-03-05T12:31:36;6.40;94.40
12815;DHT22;6472;52.328;13.070;2023-03-05T12:37:59;6.60;93.70
12815;DHT22;6472;52.328;13.070;2023-03-05T12:40:39;6.80;91.80
12815;DHT22;6472;52.328;13.070;2023-03-05T12:43:27;6.60;91.90
12815;DHT22;6472;52.328;13.070;2023-03-05T12:46:22;6.60;91.60
12815;DHT22;6472;52.328;13.070;2023-03-05T12:48:50;6.50;91.40
12815;DHT22;6472;52.328;13.070;2023-03-05T12:51:35;6.30;91.40
12815;DHT22;6472;52.328;13.070;2023-03-05T12:54:30;6.10;92.00
12815;DHT22;6472;52.328;13.070;2023-03-05T12:57:00;5.90;93.20
12815;DHT22;6472;52.328;13.070;2023-03-05T12:59:39;5.70;93.70
12815;DHT22;6472;52.328;13.070;2023-03-05T13:02:21;5.50;93.70
12815;DHT22;6472;52.328;13.070;2023-03-05T13:04:50;5.40;93.60
12815;DHT22;6472;52.328;13.070;2023-03-05T13:07:19;5.60;95.10
12815;DHT22;6472;52.328;13.070;2023-03-05T13:09:51;5.50;94.40
12815;DHT22;6472;52.328;13.070;2023-03-05T13:12:21;5.40;94.30
12815;DHT22;6472;52.328;13.070;2023-03-05T13:14:58;5.60;94.90
12815;DHT22;6472;52.328;13.070;2023-03-05T13:17:28;5.70;93.00
12815;DHT22;6472;52.328;13.070;2023-03-05T13:19:58;5.70;93.70
12815;DHT22;6472;52.328;13.070;2023-03-05T13:22:27;5.60;93.80
12815;DHT22;6472;52.328;13.070;2023-03-05T13:25:15;5.50;94.80
12815;DHT22;6472;52.328;13.070;2023-03-05T13:27:46;5.20;95.30
12815;DHT22;6472;52.328;13.070;2023-03-05T13:30:24;5.00;95.50
12815;DHT22;6472;52.328;13.070;2023-03-05T13:32:55;5.00;96.50
12815;DHT22;6472;52.328;13.070;2023-03-05T13:35:24;5.00;97.10
12815;DHT22;6472;52.328;13.070;2023-03-05T13:37:52;4.90;97.90
12815;DHT22;6472;52.328;13.070;2023-03-05T13:40:22;4.80;98.80
12815;DHT22;6472;52.328;13.070;2023-03-05T13:42:52;4.70;99.90
12815;DHT22;6472;52.328;13.070;2023-03-05T13:45:24;4.50;99.90
12815;DHT22;6472;52.328;13.070;2023-03-05T13:47:55;4.10;99.90
12815;DHT22;6472;52.328;13.070;2023-03-05T13:50:26;4.00;99.90
12815;DHT22;6472;52.328;13.070;2023-03-05T13:52:55;3.80;99.90
12815;DHT22;6472;52.328;13.070;2023-03-05T13:55:25;3.70;99.90
12815;DHT22;6472;52.328;13.070;2023-03-05T13:57:53;3.60;99.90
12815;DHT22;6472;52.328;13.070;2023-03-05T14:00:29;3.50;99.90
12815;DHT22;6472;52.328;13.070;2023-03-05T14:03:00;3.50;99.90
12815;DHT22;6472;52.328;13.070;2023-03-05T14:05:33;3.60;99.90
12815;DHT22;6472;52.328;13.070;2023-03-05T14:08:02;3.60;99.90
12815;DHT22;6472;52.328;13.070;2023-03-05T14:10:33;3.60;99.90
12815;DHT22;6472;52.328;13.070;2023-03-05T14:13:04;3.70;99.90
12815;DHT22;6472;52.328;13.070;2023-03-05T14:15:35;3.80;99.90
12815;DHT22;6472;52.328;13.070;2023-03-05T14:18:12;4.00;99.90
12815;DHT22;6472;52.328;13.070;2023-03-05T14:20:58;4.10;99.90
12815;DHT22;6472;52.328;13.070;2023-03-05T14:23:34;4.30;99.90
12815;DHT22;6472;52.328;13.070;2023-03-05T14:26:24;4.30;99.90
12815;DHT22;6472;52.328;13.070;2023-03-05T14:28:56;4.10;99.90
12815;DHT22;6472;52.328;13.070;2023-03-05T14:31:28;4.00;99.90
12815;DHT22;6472;52.328;13.070;2023-03-05T14:34:01;4.00;99.90
12815;DHT22;6472;52.328;13.070;2023-03-05T14:36:31;4.10;99.90
12815;DHT22;6472;52.328;13.070;2023-03-05T14:39:00;4.00;99.90
12815;DHT22;6472;52.328;13.070;2023-03-05T14:41:37;4.00;99.90
12815;DHT22;6472;52.328;13.070;2023-03-05T14:44:10;4.10;99.90
12815;DHT22;6472;52.328;13.070;2023-03-05T14:46:41;4.20;99.90
12815;DHT22;6472;52.328;13.070;2023-03-05T14:49:10;4.30;99.90
12815;DHT22;6472;52.328;13.070;2023-03-05T14:51:40;4.20;99.90
12815;DHT22;6472;52.328;13.070;2023-03-05T14:54:17;4.10;99.90
12815;DHT22;6472;52.328;13.070;2023-03-05T14:56:46;4.10;99.90
12815;DHT22;6472;52.328;13.070;2023-03-05T14:59:15;3.90;99.90
12815;DHT22;6472;52.328;13.070;2023-03-05T15:01:47;3.70;99.90
12815;DHT22;6472;52.328;13.070;2023-03-05T15:04:16;3.70;99.90
12815;DHT22;6472;52.328;13.070;2023-03-05T15:06:46;3.70;99.90
12815;DHT22;6472;52.328;13.070;2023-03-05T15:09:17;3.40;99.90
12815;DHT22;6472;52.328;13.070;2023-03-05T15:11:47;3.40;99.90
12815;DHT22;6472;52.328;13.070;2023-03-05T15:14:15;3.30;99.90
12815;DHT22;6472;52.328;13.070;2023-03-05T15:16:46;3.30;99.90
12815;DHT22;6472;52.328;13.070;2023-03-05T15:19:15;3.20;99.90
12815;DHT22;6472;52.328;13.070;2023-03-05T15:21:45;3.10;99.90
12815;DHT22;6472;52.328;13.070;2023-03-05T15:24:14;3.10;99.90
12815;DHT22;6472;52.328;13.070;2023-03-05T15:26:42;3.00;99.90
12815;DHT22;6472;52.328;13.070;2023-03-05T15:29:11;2.70;99.90
12815;DHT22;6472;52.328;13.070;2023-03-05T15:31:40;2.50;99.90
12815;DHT22;6472;52.328;13.070;2023-03-05T15:34:09;2.50;99.90
12815;DHT22;6472;52.328;13.070;2023-03-05T15:36:37;2.10;99.90
12815;DHT22;6472;52.328;13.070;2023-03-05T15:39:06;2.10;99.90
12815;DHT22;6472;52.328;13.070;2023-03-05T15:41:34;2.00;99.90
12815;DHT22;6472;52.328;13.070;2023-03-05T15:44:02;1.90;99.90
12815;DHT22;6472;52.328;13.070;2023-03-05T15:46:30;1.80;99.90
12815;DHT22;6472;52.328;13.070;2023-03-05T15:48:59;1.80;99.90
12815;DHT22;6472;52.328;13.070;2023-03-05T15:51:29;1.70;99.90
12815;DHT22;6472;52.328;13.070;2023-03-05T15:53:57;1.60;99.90
12815;DHT22;6472;52.328;13.070;2023-03-05T15:56:25;1.60;99.90
12815;DHT22;6472;52.328;13.070;2023-03-05T15:58:53;1.60;99.90
12815;DHT22;6472;52.328;13.070;2023-03-05T16:01:21;1.60;99.90
12815;DHT22;6472;52.328;13.070;2023-03-05T16:03:50;1.60;99.90
12815;DHT22;6472;52.328;13.070;2023-03-05T16:06:20;1.70;99.90
12815;DHT22;6472;52.328;13.070;2023-03-05T16:08:53;1.70;99.90
12815;DHT22;6472;52.328;13.070;2023-03-05T16:11:22;1.70;99.90
12815;DHT22;6472;52.328;13.070;2023-03-05T16:13:50;1.80;99.90
12815;DHT22;6472;52.328;13.070;2023-03-05T16:16:18;1.90;99.90
12815;DHT22;6472;52.328;13.070;2023-03-05T16:18:47;1.80;99.90